createdAt,value
2023-02-18T00:00:10.543Z,85.40
2023-02-18T00:02:37.624Z,85.60
2023-02-18T00:05:04.505Z,85.64
2023-02-18T00:07:38.821Z,85.35
2023-02-18T00:10:09.340Z,85.38
2023-02-18T00:12:35.934Z,85.40
2023-02-18T00:15:02.557Z,84.59
2023-02-18T00:17:30.038Z,84.23
2023-02-18T00:19:57.198Z,84.17
2023-02-18T00:22:24.326Z,83.49
2023-02-18T00:24:51.108Z,83.15
2023-02-18T00:27:17.785Z,82.88
2023-02-18T00:29:44.477Z,82.53
2023-02-18T00:32:11.286Z,82.38
2023-02-18T00:34:37.952Z,82.35
2023-02-18T00:37:05.280Z,81.88
2023-02-18T00:39:32.319Z,82.04
2023-02-18T00:41:58.919Z,81.88
2023-02-18T00:44:26.030Z,81.65
2023-02-18T00:46:53.366Z,81.60
2023-02-18T00:49:19.951Z,81.08
2023-02-18T00:51:46.489Z,81.05
2023-02-18T00:54:13.052Z,80.78
2023-02-18T00:56:39.622Z,80.49
2023-02-18T00:59:06.782Z,80.50
2023-02-18T01:01:33.565Z,80.62
2023-02-18T01:04:00.160Z,80.27
2023-02-18T01:06:26.752Z,80.64
2023-02-18T01:08:54.911Z,80.97
2023-02-18T01:23:33.189Z,81.23
2023-02-18T01:25:59.958Z,81.20
2023-02-18T01:28:39.682Z,81.11
2023-02-18T01:31:09.151Z,81.42
2023-02-18T01:33:35.998Z,81.57
2023-02-18T01:36:03.051Z,81.58
2023-02-18T01:38:29.692Z,81.93
2023-02-18T01:41:02.197Z,81.84
2023-02-18T01:43:28.983Z,81.99
2023-02-18T01:49:00.783Z,82.12
2023-02-18T01:51:32.033Z,82.41
2023-02-18T01:54:15.531Z,82.14
2023-02-18T01:56:57.967Z,82.35
2023-02-18T01:59:30.225Z,82.54
2023-02-18T02:01:58.011Z,82.56
2023-02-18T02:04:24.730Z,82.76
2023-02-18T02:06:51.424Z,82.39
2023-02-18T02:09:20.292Z,82.50
2023-02-18T02:11:57.782Z,82.46
2023-02-18T02:15:02.034Z,83.04
2023-02-18T02:17:47.093Z,83.18
2023-02-18T02:20:50.442Z,82.81
2023-02-18T02:24:04.736Z,83.23
2023-02-18T02:26:34.319Z,83.22
2023-02-18T02:29:10.795Z,83.36
2023-02-18T02:31:58.902Z,83.58
2023-02-18T02:34:30.664Z,83.40
2023-02-18T02:37:25.451Z,83.45
2023-02-18T02:39:52.093Z,84.43
2023-02-18T02:42:31.354Z,84.04
2023-02-18T02:45:12.218Z,84.14
2023-02-18T02:48:23.907Z,84.51
2023-02-18T02:50:57.330Z,84.51
2023-02-18T02:53:27.383Z,84.58
2023-02-18T02:55:56.271Z,84.73
2023-02-18T02:58:24.650Z,84.93
2023-02-18T03:01:15.469Z,85.07
2023-02-18T03:03:45.721Z,85.58
2023-02-18T03:06:42.044Z,85.22
2023-02-18T03:09:27.174Z,85.09
2023-02-18T03:12:07.630Z,85.08
2023-02-18T03:14:45.807Z,84.88
2023-02-18T03:17:44.630Z,85.11
2023-02-18T03:20:19.308Z,85.33
2023-02-18T03:22:49.486Z,85.71
2023-02-18T03:25:17.834Z,85.14
2023-02-18T03:27:50.978Z,85.39
2023-02-18T03:33:10.214Z,85.46
2023-02-18T03:35:40.329Z,85.60
2023-02-18T03:38:19.058Z,84.82
2023-02-18T03:40:48.041Z,84.82
2023-02-18T03:43:15.484Z,84.67
2023-02-18T03:45:42.183Z,84.82
2023-02-18T04:34:58.348Z,85.44
2023-02-18T04:37:25.117Z,85.02
2023-02-18T04:39:51.726Z,84.99
2023-02-18T04:42:18.417Z,84.88
2023-02-18T04:44:47.260Z,84.95
2023-02-18T04:47:15.949Z,84.77
2023-02-18T04:49:43.359Z,85.34
2023-02-18T04:52:11.361Z,84.99
2023-02-18T04:54:38.215Z,84.72
2023-02-18T04:57:04.824Z,84.93
2023-02-18T04:59:31.446Z,84.80
2023-02-18T05:01:58.003Z,84.88
2023-02-18T05:04:24.686Z,85.00
2023-02-18T05:06:51.301Z,84.83
2023-02-18T05:09:20.294Z,84.89
2023-02-18T05:11:47.604Z,84.85
2023-02-18T05:14:14.595Z,85.00
2023-02-18T05:16:41.165Z,84.89
2023-02-18T05:19:07.984Z,84.74
2023-02-18T05:21:35.685Z,84.70
2023-02-18T05:24:02.228Z,84.44
2023-02-18T05:26:28.807Z,84.50
2023-02-18T05:28:55.450Z,84.40
2023-02-18T05:31:22.153Z,84.34
2023-02-18T05:33:48.930Z,85.14
2023-02-18T05:36:15.537Z,85.06
2023-02-18T05:38:42.194Z,85.15
2023-02-18T05:41:08.737Z,85.19
2023-02-18T05:43:53.919Z,85.47
2023-02-18T05:46:20.695Z,85.20
2023-02-18T05:48:47.519Z,85.74
2023-02-18T05:51:14.252Z,85.98
2023-02-18T05:53:41.218Z,86.77
2023-02-18T05:56:08.178Z,87.13
2023-02-18T05:58:34.942Z,87.22
2023-02-18T06:01:01.522Z,87.25
2023-02-18T06:03:28.320Z,87.53
2023-02-18T06:05:55.004Z,87.77
2023-02-18T06:08:21.686Z,88.18
2023-02-18T06:10:48.295Z,88.21
2023-02-18T06:13:14.892Z,87.89
2023-02-18T06:15:41.426Z,88.61
2023-02-18T06:18:07.994Z,88.70
2023-02-18T06:20:34.638Z,88.59
2023-02-18T06:23:04.393Z,89.19
2023-02-18T06:25:31.494Z,89.13
2023-02-18T06:27:58.070Z,89.38
2023-02-18T06:30:24.782Z,90.07
2023-02-18T06:32:51.380Z,90.48
2023-02-18T06:35:18.318Z,90.25
2023-02-18T06:37:47.384Z,90.32
2023-02-18T06:40:14.451Z,90.46
2023-02-18T06:42:41.212Z,90.46
2023-02-18T06:45:08.178Z,90.54
2023-02-18T06:47:34.852Z,90.94
2023-02-18T06:50:01.718Z,90.98
2023-02-18T06:52:30.788Z,91.26
2023-02-18T06:54:57.342Z,90.87
2023-02-18T06:57:23.924Z,90.66
2023-02-18T06:59:58.133Z,90.79
2023-02-18T07:02:25.066Z,90.61
2023-02-18T07:04:52.868Z,90.58
2023-02-18T07:07:19.559Z,90.71
2023-02-18T07:09:46.337Z,90.87
2023-02-18T07:12:13.023Z,91.36
2023-02-18T07:14:39.898Z,91.39
2023-02-18T07:17:06.578Z,91.05
2023-02-18T07:19:35.367Z,90.75
2023-02-18T07:22:02.046Z,91.16
2023-02-18T07:24:28.611Z,91.11
2023-02-18T07:26:55.220Z,91.15
2023-02-18T07:29:21.816Z,91.67
2023-02-18T07:31:48.539Z,91.50
2023-02-18T07:34:16.967Z,92.23
2023-02-18T07:36:43.527Z,92.81
2023-02-18T07:39:10.142Z,93.02
2023-02-18T07:41:36.712Z,93.30
2023-02-18T07:44:07.856Z,92.61
2023-02-18T07:46:34.566Z,92.76
2023-02-18T07:49:02.439Z,93.03
2023-02-18T07:51:29.027Z,93.18
2023-02-18T07:53:55.571Z,93.90
2023-02-18T07:56:23.201Z,93.54
2023-02-18T07:58:49.836Z,93.65
2023-02-18T08:01:16.980Z,92.83
2023-02-18T08:03:43.903Z,93.34
2023-02-18T08:06:22.876Z,93.16
2023-02-18T08:08:52.901Z,92.85
2023-02-18T08:11:19.983Z,92.68
2023-02-18T08:13:48.548Z,92.06
2023-02-18T08:16:17.485Z,91.52
2023-02-18T08:18:44.263Z,91.51
2023-02-18T08:21:10.926Z,91.82
2023-02-18T08:23:37.513Z,91.16
2023-02-18T08:26:04.252Z,90.67
2023-02-18T08:28:30.832Z,90.47
2023-02-18T08:30:58.267Z,90.68
2023-02-18T08:33:25.252Z,90.66
2023-02-18T08:35:53.351Z,90.25
2023-02-18T08:38:20.637Z,90.20
2023-02-18T08:40:47.876Z,90.03
2023-02-18T08:43:15.401Z,90.30
2023-02-18T09:00:29.785Z,88.84
2023-02-18T09:02:56.727Z,88.21
2023-02-18T09:05:35.226Z,88.25
2023-02-18T09:14:20.492Z,86.83
2023-02-18T10:27:57.296Z,83.40
2023-02-18T11:12:51.961Z,78.19
2023-02-18T11:15:24.609Z,77.18
2023-02-18T11:17:54.464Z,76.55
2023-02-18T11:20:35.533Z,76.25
2023-02-18T11:23:08.242Z,75.44
2023-02-18T11:25:37.556Z,75.00
2023-02-18T11:28:35.512Z,74.47
2023-02-18T11:31:02.830Z,74.57
2023-02-18T11:33:35.645Z,74.56
2023-02-18T11:36:19.434Z,73.74
2023-02-18T11:38:49.856Z,74.09
2023-02-18T11:41:20.338Z,74.51
2023-02-18T11:43:50.463Z,74.35
2023-02-18T11:46:20.976Z,73.98
2023-02-18T11:48:48.125Z,72.97
2023-02-18T11:51:37.949Z,72.81
2023-02-18T11:54:17.944Z,72.01
2023-02-18T11:56:56.592Z,71.46
2023-02-18T11:59:23.585Z,70.64
2023-02-18T12:01:58.982Z,70.00
2023-02-18T12:04:30.123Z,69.92
2023-02-18T12:07:31.934Z,69.20
2023-02-18T12:10:01.496Z,68.63
2023-02-18T12:12:33.501Z,69.07
2023-02-18T12:15:00.397Z,69.00
2023-02-18T12:17:33.150Z,68.39
2023-02-18T12:20:15.491Z,68.27
2023-02-18T12:23:00.709Z,68.29
2023-02-18T12:25:46.684Z,67.16
2023-02-18T12:28:33.608Z,66.46
2023-02-18T12:31:26.125Z,66.28
2023-02-18T12:34:28.271Z,66.30
2023-02-18T12:37:32.666Z,65.85
2023-02-18T12:40:11.315Z,65.18
2023-02-18T12:42:50.013Z,66.05
2023-02-18T12:45:38.467Z,64.76
2023-02-18T12:48:38.702Z,65.66
2023-02-18T12:51:11.498Z,64.32
2023-02-18T12:53:38.291Z,64.96
2023-02-18T12:56:24.610Z,64.25
2023-02-18T12:59:13.058Z,64.13
2023-02-18T13:02:00.116Z,64.43
2023-02-18T13:04:59.077Z,64.24
2023-02-18T13:07:43.755Z,63.01
2023-02-18T13:10:28.818Z,62.59
2023-02-18T13:13:11.952Z,62.99
2023-02-18T13:16:00.340Z,62.42
2023-02-18T13:19:03.757Z,60.91
2023-02-18T13:21:31.354Z,60.37
2023-02-18T13:24:10.748Z,60.43
2023-02-18T13:26:37.858Z,61.30
2023-02-18T13:29:22.853Z,59.89
2023-02-18T13:32:03.303Z,59.74
2023-02-18T13:34:34.894Z,59.46
2023-02-18T13:37:18.594Z,59.92
2023-02-18T13:39:54.483Z,59.57
2023-02-18T13:42:28.427Z,60.31
2023-02-18T13:44:55.014Z,59.52
2023-02-18T13:47:36.666Z,59.78
2023-02-18T13:50:21.819Z,59.25
2023-02-18T13:52:53.766Z,59.49
2023-02-18T13:55:27.869Z,59.36
2023-02-18T13:57:55.599Z,59.39
2023-02-18T14:00:24.764Z,59.82
2023-02-18T14:02:59.858Z,59.87
2023-02-18T14:05:39.986Z,60.26
2023-02-18T14:08:13.421Z,60.78
2023-02-18T14:10:40.372Z,61.01
2023-02-18T14:13:41.380Z,60.58
2023-02-18T14:16:09.516Z,60.34
2023-02-18T14:18:39.218Z,60.27
2023-02-18T14:21:20.781Z,60.57
2023-02-18T14:23:59.218Z,60.22
2023-02-18T14:26:30.643Z,61.20
2023-02-18T14:29:11.473Z,61.99
2023-02-18T14:31:45.597Z,61.62
2023-02-18T14:34:15.100Z,61.96
2023-02-18T14:36:56.486Z,61.68
2023-02-18T14:39:44.984Z,61.96
2023-02-18T14:42:17.654Z,62.75
2023-02-18T14:45:09.939Z,62.01
2023-02-18T14:47:57.912Z,62.56
2023-02-18T14:50:24.708Z,63.19
2023-02-18T14:52:58.115Z,63.94
2023-02-18T14:55:30.859Z,63.85
2023-02-18T14:58:07.173Z,63.64
2023-02-18T15:00:37.205Z,64.00
2023-02-18T15:03:03.932Z,64.66
2023-02-18T15:05:32.471Z,64.80
2023-02-18T15:08:04.245Z,64.42
2023-02-18T15:10:40.930Z,64.27
2023-02-18T15:13:37.393Z,64.84
2023-02-18T15:16:09.374Z,64.85
2023-02-18T15:18:51.787Z,64.77
2023-02-18T15:21:26.339Z,65.22
2023-02-18T15:23:53.145Z,65.11
2023-02-18T15:26:20.473Z,65.31
2023-02-18T15:29:03.742Z,65.35
2023-02-18T15:31:36.085Z,65.75
2023-02-18T15:34:04.292Z,65.80
2023-02-18T15:36:31.927Z,66.25
2023-02-18T15:38:58.962Z,66.65
2023-02-18T15:41:25.685Z,66.52
2023-02-18T15:43:56.313Z,66.75
2023-02-18T15:46:26.205Z,67.27
2023-02-18T15:48:53.568Z,66.73
2023-02-18T15:51:23.405Z,66.61
2023-02-18T15:53:52.658Z,66.69
2023-02-18T15:56:32.866Z,66.28
2023-02-18T15:59:14.835Z,67.07
2023-02-18T16:01:41.639Z,68.00
2023-02-18T16:04:08.869Z,68.38
2023-02-18T16:06:39.091Z,68.47
2023-02-18T16:09:27.616Z,68.69
2023-02-18T16:11:59.720Z,68.87
2023-02-18T16:14:32.163Z,69.83
2023-02-18T16:17:18.346Z,70.11
2023-02-18T16:20:03.881Z,70.70
2023-02-18T16:22:31.313Z,71.08
2023-02-18T16:25:01.562Z,71.81
2023-02-18T16:27:32.657Z,71.96
2023-02-18T16:30:03.107Z,71.74
2023-02-18T16:32:29.942Z,72.46
2023-02-18T16:34:56.707Z,72.51
2023-02-18T16:37:38.604Z,72.62
2023-02-18T16:40:29.264Z,73.22
2023-02-18T16:42:58.283Z,73.59
2023-02-18T16:45:36.826Z,73.34
2023-02-18T16:48:04.172Z,73.45
2023-02-18T17:11:20.888Z,72.27
2023-02-18T17:13:48.923Z,72.35
2023-02-18T17:16:16.158Z,71.73
2023-02-18T17:21:57.916Z,70.98
2023-02-18T17:24:24.584Z,71.13
2023-02-18T17:26:51.286Z,70.13
2023-02-18T17:43:57.955Z,68.27
2023-02-18T17:55:30.581Z,68.59
2023-02-18T18:03:55.956Z,69.07
2023-02-18T18:06:23.548Z,69.45
2023-02-18T18:23:38.005Z,70.56
2023-02-18T18:26:04.919Z,70.65
2023-02-18T18:56:30.046Z,73.01
2023-02-18T18:58:56.921Z,73.17
2023-02-18T19:01:27.163Z,73.41
2023-02-18T19:03:54.364Z,73.25
2023-02-18T19:06:21.548Z,73.21
2023-02-18T19:23:48.024Z,74.91
